Time;durP1;ratioP1;P1;durP2;ratioP2;P2;SDS_P1;SDS_P2;PMS_P1;PMS_P2;Temp;Humidity;BMP_temperature;BMP_pressure;BME280_temperature;BME280_humidity;BME280_pressure;Samples;Min_cycle;Max_cycle;Signal;HPM_P1;HPM_P2
2022/03/11 00:00:31;;;;;;;;;;;6.30;42.20;;;;;;5031826;28;19936;-76
2022/03/11 00:02:57;;;;;;;;;;;6.30;42.20;;;;;;5030281;28;19972;-75
2022/03/11 00:05:25;;;;;;;;;;;6.30;42.20;;;;;;5029639;28;19964;-76
2022/03/11 00:07:52;;;;;;;;;;;6.30;42.20;;;;;;5030666;28;19925;-76
2022/03/11 00:10:18;;;;;;;;;;;6.40;42.20;;;;;;5030654;28;20016;-75
2022/03/11 00:12:45;;;;;;;;;;;6.30;42.10;;;;;;5030668;28;20025;-76
2022/03/11 00:15:14;;;;;;;;;;;6.30;42.20;;;;;;5033368;28;20024;-75
2022/03/11 00:17:42;;;;;;;;;;;6.30;42.40;;;;;;5032000;28;19992;-77
2022/03/11 00:20:09;;;;;;;;;;;6.30;42.20;;;;;;5028561;28;19929;-75
2022/03/11 00:22:36;;;;;;;;;;;6.30;42.20;;;;;;5031177;28;20411;-75
2022/03/11 00:25:03;;;;;;;;;;;6.30;42.10;;;;;;5031235;28;20398;-76
2022/03/11 00:27:30;;;;;;;;;;;6.20;42.40;;;;;;5030022;28;20023;-76
2022/03/11 00:29:56;;;;;;;;;;;6.20;42.70;;;;;;5027727;28;20376;-75
2022/03/11 00:32:23;;;;;;;;;;;6.10;42.50;;;;;;5029694;28;19925;-76
2022/03/11 00:34:51;;;;;;;;;;;6.10;42.80;;;;;;5031055;28;19990;-75
2022/03/11 00:37:18;;;;;;;;;;;6.00;43.00;;;;;;5027414;28;19979;-75
2022/03/11 00:39:44;;;;;;;;;;;6.00;43.10;;;;;;5027695;28;19931;-75
2022/03/11 00:42:11;;;;;;;;;;;6.00;43.50;;;;;;5029657;28;19925;-75
2022/03/11 00:44:38;;;;;;;;;;;5.90;43.70;;;;;;5030126;28;19929;-76
2022/03/11 00:47:05;;;;;;;;;;;5.80;43.60;;;;;;5025244;28;19940;-75
2022/03/11 00:49:32;;;;;;;;;;;5.80;43.70;;;;;;5030835;28;19932;-76
2022/03/11 00:52:00;;;;;;;;;;;5.80;43.90;;;;;;5032284;28;20004;-76
2022/03/11 00:54:26;;;;;;;;;;;5.80;43.60;;;;;;5032823;28;19932;-76
2022/03/11 00:56:53;;;;;;;;;;;5.90;43.20;;;;;;5031161;28;20392;-76
2022/03/11 00:59:20;;;;;;;;;;;6.00;42.90;;;;;;5032559;28;19929;-75
2022/03/11 01:01:47;;;;;;;;;;;6.10;42.90;;;;;;5030966;28;19988;-75
2022/03/11 01:04:14;;;;;;;;;;;6.20;42.40;;;;;;5031224;28;19925;-75
2022/03/11 01:06:41;;;;;;;;;;;6.00;42.20;;;;;;5030698;28;19925;-75
2022/03/11 01:09:09;;;;;;;;;;;6.20;42.00;;;;;;5032236;28;19932;-75
2022/03/11 01:11:36;;;;;;;;;;;6.20;41.90;;;;;;5029993;28;19932;-75
2022/03/11 01:14:03;;;;;;;;;;;6.20;41.80;;;;;;5030445;28;19937;-76
2022/03/11 01:16:30;;;;;;;;;;;6.20;41.80;;;;;;5033436;28;19931;-75
2022/03/11 01:18:57;;;;;;;;;;;6.20;41.70;;;;;;5034142;28;19933;-75
2022/03/11 01:21:23;;;;;;;;;;;6.20;41.70;;;;;;5031490;28;19932;-75
2022/03/11 01:23:50;;;;;;;;;;;6.20;41.60;;;;;;5030932;28;19935;-75
2022/03/11 01:26:18;;;;;;;;;;;6.20;41.50;;;;;;5015941;28;20015;-75
2022/03/11 01:28:44;;;;;;;;;;;6.30;41.30;;;;;;5031427;28;20422;-76
2022/03/11 01:31:12;;;;;;;;;;;6.30;41.30;;;;;;5028298;28;20353;-76
2022/03/11 01:33:39;;;;;;;;;;;6.20;41.40;;;;;;5028978;28;19929;-76
2022/03/11 01:36:05;;;;;;;;;;;6.20;41.30;;;;;;5029794;28;20146;-75
2022/03/11 01:38:32;;;;;;;;;;;6.20;41.50;;;;;;5030172;28;19935;-76
2022/03/11 01:40:59;;;;;;;;;;;6.10;41.50;;;;;;5023350;28;19933;-76
2022/03/11 01:43:28;;;;;;;;;;;6.10;41.70;;;;;;5030435;28;19925;-76
2022/03/11 01:45:54;;;;;;;;;;;6.10;41.60;;;;;;5029672;28;19925;-76
2022/03/11 01:48:21;;;;;;;;;;;6.00;41.90;;;;;;5030945;28;19932;-76
2022/03/11 01:50:48;;;;;;;;;;;5.90;42.00;;;;;;5029989;28;20007;-76
2022/03/11 01:53:15;;;;;;;;;;;6.00;42.00;;;;;;5031718;28;19931;-76
2022/03/11 01:55:41;;;;;;;;;;;5.90;42.70;;;;;;5025640;28;19925;-75
2022/03/11 01:58:08;;;;;;;;;;;5.90;42.30;;;;;;5032013;28;19931;-75
2022/03/11 02:00:39;;;;;;;;;;;5.80;42.10;;;;;;5030026;28;19925;-75
2022/03/11 02:03:06;;;;;;;;;;;5.90;42.30;;;;;;5030336;28;19925;-76
2022/03/11 02:05:33;;;;;;;;;;;5.80;42.10;;;;;;5029314;28;19925;-76
2022/03/11 02:08:00;;;;;;;;;;;5.90;42.00;;;;;;5030499;28;20304;-76
2022/03/11 02:10:27;;;;;;;;;;;5.80;41.80;;;;;;5025109;28;19936;-76
2022/03/11 02:12:53;;;;;;;;;;;5.80;41.80;;;;;;5031627;28;19947;-77
2022/03/11 02:15:20;;;;;;;;;;;5.90;41.70;;;;;;5034221;28;19964;-76
2022/03/11 02:17:48;;;;;;;;;;;5.80;41.50;;;;;;5031961;28;19925;-77
2022/03/11 02:20:15;;;;;;;;;;;5.80;41.50;;;;;;5029594;28;20303;-75
2022/03/11 02:22:42;;;;;;;;;;;5.80;41.50;;;;;;5028880;28;19931;-76
2022/03/11 02:25:10;;;;;;;;;;;5.90;41.60;;;;;;5033136;28;19925;-77
2022/03/11 02:27:37;;;;;;;;;;;5.80;41.50;;;;;;5031372;28;20000;-76
2022/03/11 02:30:05;;;;;;;;;;;5.80;41.50;;;;;;5030631;28;19932;-76
2022/03/11 02:32:32;;;;;;;;;;;5.80;41.60;;;;;;5032014;28;19967;-76
2022/03/11 02:34:58;;;;;;;;;;;5.80;41.60;;;;;;5032832;28;20337;-76
2022/03/11 02:37:25;;;;;;;;;;;5.80;41.60;;;;;;5030203;28;19925;-76
2022/03/11 02:39:52;;;;;;;;;;;5.70;41.60;;;;;;5030474;28;19932;-76
2022/03/11 02:42:20;;;;;;;;;;;5.80;41.30;;;;;;5031172;28;20012;-76
2022/03/11 02:44:47;;;;;;;;;;;5.80;41.40;;;;;;5031973;28;20292;-76
2022/03/11 02:47:13;;;;;;;;;;;5.70;41.40;;;;;;5028490;28;19987;-75
2022/03/11 02:49:40;;;;;;;;;;;5.70;41.50;;;;;;5029935;28;19925;-76
2022/03/11 02:52:07;;;;;;;;;;;5.70;41.50;;;;;;5022972;28;20012;-76
2022/03/11 02:54:34;;;;;;;;;;;5.70;41.60;;;;;;5032215;28;20481;-76
2022/03/11 02:57:00;;;;;;;;;;;5.60;41.60;;;;;;5029242;28;19929;-76
2022/03/11 02:59:28;;;;;;;;;;;5.70;41.60;;;;;;5028048;28;20299;-76
2022/03/11 03:01:55;;;;;;;;;;;5.60;41.50;;;;;;5028614;28;19960;-76
2022/03/11 03:04:22;;;;;;;;;;;5.60;41.70;;;;;;5030563;28;20407;-75
2022/03/11 03:06:48;;;;;;;;;;;5.60;41.60;;;;;;5029345;28;20366;-76
2022/03/11 03:09:15;;;;;;;;;;;5.60;41.60;;;;;;5031447;28;19987;-75
2022/03/11 03:11:42;;;;;;;;;;;5.60;41.70;;;;;;5031258;28;19976;-75
2022/03/11 03:14:08;;;;;;;;;;;5.50;41.90;;;;;;5030616;28;20020;-76
2022/03/11 03:16:36;;;;;;;;;;;5.50;41.90;;;;;;5020855;28;20035;-75
2022/03/11 03:19:03;;;;;;;;;;;5.50;41.90;;;;;;5034530;28;19931;-75
2022/03/11 03:21:30;;;;;;;;;;;5.40;42.10;;;;;;5032158;28;20008;-75
2022/03/11 03:23:56;;;;;;;;;;;5.40;42.40;;;;;;5028322;28;19929;-75
2022/03/11 03:26:23;;;;;;;;;;;5.30;42.30;;;;;;5031002;28;19931;-75
2022/03/11 03:28:50;;;;;;;;;;;5.30;42.20;;;;;;5035170;28;19929;-76
2022/03/11 03:31:19;;;;;;;;;;;5.30;42.40;;;;;;5033511;28;19925;-75
2022/03/11 03:33:47;;;;;;;;;;;5.30;42.50;;;;;;5034399;28;20028;-75
2022/03/11 03:36:14;;;;;;;;;;;5.20;42.50;;;;;;5031158;28;20040;-75
2022/03/11 03:38:41;;;;;;;;;;;5.30;42.60;;;;;;5028770;28;19956;-75
2022/03/11 03:41:08;;;;;;;;;;;5.20;42.50;;;;;;5032133;28;19951;-75
2022/03/11 03:43:34;;;;;;;;;;;5.30;42.40;;;;;;5034896;28;20383;-75
2022/03/11 03:46:01;;;;;;;;;;;5.20;42.50;;;;;;5032467;28;20004;-75
2022/03/11 03:48:28;;;;;;;;;;;5.10;42.60;;;;;;5032086;28;19932;-76
2022/03/11 03:50:56;;;;;;;;;;;5.20;42.70;;;;;;5030848;28;19925;-75
2022/03/11 03:53:23;;;;;;;;;;;5.20;42.70;;;;;;5032591;28;19925;-75
2022/03/11 03:55:49;;;;;;;;;;;5.10;42.60;;;;;;5030530;28;19928;-75
2022/03/11 03:58:16;;;;;;;;;;;5.10;42.60;;;;;;5032170;28;20019;-75
2022/03/11 04:00:43;;;;;;;;;;;5.10;42.60;;;;;;5033119;28;19925;-75
2022/03/11 04:03:09;;;;;;;;;;;5.10;42.70;;;;;;5027234;28;19932;-75
2022/03/11 04:05:37;;;;;;;;;;;5.10;42.90;;;;;;5032952;28;20023;-75
2022/03/11 04:08:06;;;;;;;;;;;5.10;42.90;;;;;;5033311;28;20507;-75
2022/03/11 04:10:32;;;;;;;;;;;5.00;42.90;;;;;;5034203;28;20010;-76
2022/03/11 04:12:59;;;;;;;;;;;5.00;43.10;;;;;;5032574;28;20308;-76
2022/03/11 04:15:25;;;;;;;;;;;5.00;43.20;;;;;;5035417;28;20384;-76
2022/03/11 04:17:52;;;;;;;;;;;5.00;43.20;;;;;;5028513;28;19933;-76
2022/03/11 04:20:19;;;;;;;;;;;5.00;43.20;;;;;;5033729;28;20039;-76
2022/03/11 04:22:46;;;;;;;;;;;4.90;43.30;;;;;;5031609;28;19925;-76
2022/03/11 04:25:15;;;;;;;;;;;4.90;43.30;;;;;;5033744;28;19925;-76
2022/03/11 04:27:42;;;;;;;;;;;4.90;43.30;;;;;;5030939;28;19935;-76
2022/03/11 04:30:09;;;;;;;;;;;4.90;43.40;;;;;;5034056;28;19925;-76
2022/03/11 04:32:35;;;;;;;;;;;4.80;43.40;;;;;;5031859;28;19925;-76
2022/03/11 04:35:03;;;;;;;;;;;4.80;43.60;;;;;;5024725;28;20019;-75
2022/03/11 04:37:29;;;;;;;;;;;4.80;43.70;;;;;;5031244;28;19955;-75
2022/03/11 04:39:57;;;;;;;;;;;4.80;43.60;;;;;;5032018;28;19929;-75
2022/03/11 04:42:25;;;;;;;;;;;4.80;43.60;;;;;;5029635;28;20027;-76
2022/03/11 04:44:52;;;;;;;;;;;4.80;43.70;;;;;;5030521;28;19965;-75
2022/03/11 04:47:19;;;;;;;;;;;4.80;43.90;;;;;;5029232;28;19975;-75
2022/03/11 04:49:45;;;;;;;;;;;4.80;43.90;;;;;;5029780;28;20028;-75
2022/03/11 04:52:12;;;;;;;;;;;4.80;44.10;;;;;;5031202;28;19936;-75
2022/03/11 04:54:38;;;;;;;;;;;4.80;44.30;;;;;;5034392;28;19980;-77
2022/03/11 04:57:05;;;;;;;;;;;4.70;44.40;;;;;;5039277;28;19925;-76
2022/03/11 04:59:33;;;;;;;;;;;4.70;44.50;;;;;;5037609;28;19929;-76
2022/03/11 05:02:00;;;;;;;;;;;4.70;44.60;;;;;;5036694;28;19925;-75
2022/03/11 05:04:26;;;;;;;;;;;4.70;44.70;;;;;;5032373;28;20260;-76
2022/03/11 05:06:57;;;;;;;;;;;4.70;44.70;;;;;;5029128;28;19964;-77
2022/03/11 05:09:23;;;;;;;;;;;4.70;44.80;;;;;;5036612;28;19925;-76
2022/03/11 05:11:50;;;;;;;;;;;4.70;44.70;;;;;;5032727;28;19925;-76
2022/03/11 05:14:17;;;;;;;;;;;4.70;44.70;;;;;;5036309;28;20066;-76
2022/03/11 05:16:45;;;;;;;;;;;4.70;44.80;;;;;;5032524;28;19975;-76
2022/03/11 05:19:11;;;;;;;;;;;4.80;44.60;;;;;;5034177;28;20024;-74
2022/03/11 05:21:38;;;;;;;;;;;4.90;44.40;;;;;;5030944;28;19925;-73
2022/03/11 05:24:06;;;;;;;;;;;4.80;44.30;;;;;;5033593;28;19925;-75
2022/03/11 05:26:32;;;;;;;;;;;4.80;44.40;;;;;;5031200;28;20440;-74
2022/03/11 05:28:59;;;;;;;;;;;4.90;44.50;;;;;;5033589;28;19932;-74
2022/03/11 05:31:26;;;;;;;;;;;4.80;44.40;;;;;;5033558;28;19985;-75
2022/03/11 05:33:55;;;;;;;;;;;4.90;44.90;;;;;;5032643;28;20378;-75
2022/03/11 05:36:22;;;;;;;;;;;4.90;44.30;;;;;;5029549;28;19925;-75
2022/03/11 05:38:49;;;;;;;;;;;5.00;44.50;;;;;;5031055;28;19926;-75
2022/03/11 05:41:15;;;;;;;;;;;5.00;44.50;;;;;;5029148;28;20299;-76
2022/03/11 05:43:42;;;;;;;;;;;5.10;44.40;;;;;;5029072;28;20012;-76
2022/03/11 05:46:09;;;;;;;;;;;5.20;44.20;;;;;;5028506;28;19932;-75
2022/03/11 05:48:36;;;;;;;;;;;5.20;44.20;;;;;;5028632;28;20336;-75
2022/03/11 05:51:04;;;;;;;;;;;5.30;44.20;;;;;;5026620;28;20000;-76
2022/03/11 05:53:31;;;;;;;;;;;5.20;44.10;;;;;;5031307;28;19925;-75
2022/03/11 05:55:58;;;;;;;;;;;5.30;44.10;;;;;;5030138;28;20004;-76
2022/03/11 05:58:24;;;;;;;;;;;5.20;44.30;;;;;;5030196;28;19929;-75
2022/03/11 06:00:51;;;;;;;;;;;5.30;44.50;;;;;;5029636;28;19972;-75
2022/03/11 06:03:17;;;;;;;;;;;5.40;44.20;;;;;;5023243;28;20395;-75
2022/03/11 06:05:44;;;;;;;;;;;5.40;44.10;;;;;;5023124;28;19931;-75
2022/03/11 06:08:15;;;;;;;;;;;5.40;44.00;;;;;;5028634;28;19925;-73
2022/03/11 06:10:44;;;;;;;;;;;5.30;44.10;;;;;;5028949;28;19955;-72
2022/03/11 06:13:11;;;;;;;;;;;5.40;44.40;;;;;;5028971;28;19925;-71
2022/03/11 06:15:38;;;;;;;;;;;5.50;44.40;;;;;;5024032;28;19936;-72
2022/03/11 06:18:05;;;;;;;;;;;5.50;44.60;;;;;;5026237;28;19995;-72
2022/03/11 06:20:32;;;;;;;;;;;5.50;44.40;;;;;;5027869;28;19933;-71
2022/03/11 06:22:59;;;;;;;;;;;5.60;44.30;;;;;;5025211;28;20423;-79
2022/03/11 06:25:27;;;;;;;;;;;5.60;44.20;;;;;;5027439;28;19956;-73
2022/03/11 06:27:54;;;;;;;;;;;5.70;44.30;;;;;;5026612;28;19925;-73
2022/03/11 06:30:21;;;;;;;;;;;5.70;44.20;;;;;;5023192;28;20019;-73
2022/03/11 06:32:48;;;;;;;;;;;5.80;44.00;;;;;;5025790;28;20018;-73
2022/03/11 06:35:16;;;;;;;;;;;5.80;43.80;;;;;;5027388;28;19947;-73
2022/03/11 06:37:43;;;;;;;;;;;5.80;43.70;;;;;;5022903;28;19936;-72
2022/03/11 06:40:10;;;;;;;;;;;5.90;43.80;;;;;;5025641;28;20273;-73
2022/03/11 06:42:39;;;;;;;;;;;6.00;43.70;;;;;;5022891;28;19931;-73
2022/03/11 06:45:06;;;;;;;;;;;6.00;43.50;;;;;;5025049;28;20023;-73
2022/03/11 06:47:33;;;;;;;;;;;6.00;43.50;;;;;;5018017;28;19969;-73
2022/03/11 06:50:00;;;;;;;;;;;6.00;43.30;;;;;;5030478;28;19932;-72
2022/03/11 06:52:26;;;;;;;;;;;6.20;43.20;;;;;;5028158;28;19971;-73
2022/03/11 06:54:53;;;;;;;;;;;6.20;42.90;;;;;;5033958;28;19939;-72
2022/03/11 06:57:20;;;;;;;;;;;6.30;42.80;;;;;;5029351;28;19932;-72
2022/03/11 06:59:49;;;;;;;;;;;6.20;43.00;;;;;;5024599;28;19940;-75
2022/03/11 07:02:19;;;;;;;;;;;6.30;43.10;;;;;;5031619;28;20012;-72
2022/03/11 07:04:46;;;;;;;;;;;6.30;43.00;;;;;;5045696;22;20433;-72
2022/03/11 07:07:12;;;;;;;;;;;6.30;43.30;;;;;;5042923;28;20421;-71
2022/03/11 07:09:39;;;;;;;;;;;6.30;43.50;;;;;;5043432;28;20015;-67
2022/03/11 07:12:06;;;;;;;;;;;6.40;43.40;;;;;;5047406;28;19925;-67
2022/03/11 07:14:35;;;;;;;;;;;6.50;43.40;;;;;;5043651;28;20027;-72
2022/03/11 07:17:04;;;;;;;;;;;6.60;43.30;;;;;;5050961;28;20001;-73
2022/03/11 07:19:30;;;;;;;;;;;6.60;43.30;;;;;;5050246;28;19979;-72
2022/03/11 07:21:57;;;;;;;;;;;6.60;43.10;;;;;;5033659;28;20024;-72
2022/03/11 07:24:24;;;;;;;;;;;6.70;43.10;;;;;;5033621;28;19925;-71
2022/03/11 07:26:51;;;;;;;;;;;6.80;43.00;;;;;;5019389;28;19926;-71
2022/03/11 07:29:17;;;;;;;;;;;7.00;42.70;;;;;;5016809;28;20009;-71
2022/03/11 07:31:45;;;;;;;;;;;7.10;42.70;;;;;;5022459;28;19932;-71
2022/03/11 07:34:13;;;;;;;;;;;7.00;42.70;;;;;;5020320;28;19929;-72
2022/03/11 07:36:40;;;;;;;;;;;7.10;42.50;;;;;;5027137;28;20012;-71
2022/03/11 07:39:07;;;;;;;;;;;7.20;42.50;;;;;;5037451;28;20009;-72
2022/03/11 07:41:34;;;;;;;;;;;7.30;42.30;;;;;;5032048;28;19948;-72
2022/03/11 07:44:01;;;;;;;;;;;7.40;42.40;;;;;;5033927;28;20402;-71
2022/03/11 07:46:29;;;;;;;;;;;7.50;42.20;;;;;;5025272;28;20527;-71
2022/03/11 07:48:56;;;;;;;;;;;7.50;42.10;;;;;;5016987;28;20441;-71
2022/03/11 07:51:25;;;;;;;;;;;7.70;42.20;;;;;;5019773;28;19930;-71
2022/03/11 07:53:52;;;;;;;;;;;7.70;41.90;;;;;;5021868;28;19925;-71
2022/03/11 07:56:19;;;;;;;;;;;7.90;41.90;;;;;;5024259;28;20048;-72
2022/03/11 07:58:45;;;;;;;;;;;9.80;39.80;;;;;;5022339;28;20016;-72
2022/03/11 08:01:13;;;;;;;;;;;11.10;34.60;;;;;;5015421;28;19947;-71
2022/03/11 08:03:40;;;;;;;;;;;12.30;34.00;;;;;;5020524;28;19925;-70
2022/03/11 08:06:08;;;;;;;;;;;14.20;30.00;;;;;;5020924;28;19933;-70
2022/03/11 08:08:36;;;;;;;;;;;15.30;27.70;;;;;;5025845;28;19948;-70
2022/03/11 08:11:03;;;;;;;;;;;15.90;26.50;;;;;;5025330;28;19968;-70
2022/03/11 08:13:30;;;;;;;;;;;15.50;26.60;;;;;;5024216;28;19941;-71
2022/03/11 08:15:56;;;;;;;;;;;16.20;26.10;;;;;;5025350;28;19933;-71
2022/03/11 08:18:23;;;;;;;;;;;17.00;25.00;;;;;;5028622;28;19925;-72
2022/03/11 08:20:50;;;;;;;;;;;17.10;24.50;;;;;;5024092;28;19936;-73
2022/03/11 08:23:16;;;;;;;;;;;16.10;25.70;;;;;;5028931;28;19972;-72
2022/03/11 08:25:45;;;;;;;;;;;17.00;24.80;;;;;;5020223;28;20012;-73
2022/03/11 08:28:13;;;;;;;;;;;17.10;23.90;;;;;;5020438;28;19925;-74
2022/03/11 08:30:40;;;;;;;;;;;16.70;24.70;;;;;;5026671;28;20008;-74
2022/03/11 08:33:07;;;;;;;;;;;16.80;24.30;;;;;;5019532;28;19929;-74
2022/03/11 08:35:34;;;;;;;;;;;16.60;24.60;;;;;;5020361;28;20007;-75
2022/03/11 08:38:03;;;;;;;;;;;16.70;24.50;;;;;;5025509;28;19932;-75
2022/03/11 08:40:30;;;;;;;;;;;17.30;24.10;;;;;;5024562;28;19932;-75
2022/03/11 08:42:58;;;;;;;;;;;17.70;23.90;;;;;;5026055;28;20404;-73
2022/03/11 08:45:25;;;;;;;;;;;18.60;22.50;;;;;;5013568;28;19932;-74
2022/03/11 08:47:52;;;;;;;;;;;18.90;22.20;;;;;;5022875;28;19931;-73
2022/03/11 08:50:19;;;;;;;;;;;18.80;22.10;;;;;;5025229;28;19935;-70
2022/03/11 08:52:46;;;;;;;;;;;19.10;22.30;;;;;;5029776;28;19968;-70
2022/03/11 08:55:13;;;;;;;;;;;18.80;22.10;;;;;;5018447;28;19952;-69
2022/03/11 08:57:40;;;;;;;;;;;19.70;21.20;;;;;;5023764;28;19925;-72
2022/03/11 09:00:12;;;;;;;;;;;19.90;20.90;;;;;;5016376;28;19948;-72
2022/03/11 09:02:39;;;;;;;;;;;19.40;21.50;;;;;;5012672;28;19936;-70
2022/03/11 09:05:06;;;;;;;;;;;19.20;21.70;;;;;;5019837;28;20009;-70
2022/03/11 09:07:33;;;;;;;;;;;19.00;21.80;;;;;;5021703;28;19983;-71
2022/03/11 09:09:59;;;;;;;;;;;18.10;22.90;;;;;;5019899;28;20363;-71
2022/03/11 09:12:26;;;;;;;;;;;18.20;23.30;;;;;;5021592;28;20024;-72
2022/03/11 09:14:53;;;;;;;;;;;18.30;23.50;;;;;;5022754;28;19925;-70
2022/03/11 09:17:21;;;;;;;;;;;19.30;22.70;;;;;;5022164;28;20226;-70
2022/03/11 09:19:48;;;;;;;;;;;19.60;22.00;;;;;;5027566;28;19955;-71
2022/03/11 09:22:17;;;;;;;;;;;19.50;22.40;;;;;;5028276;28;19925;-71
2022/03/11 09:24:44;;;;;;;;;;;19.20;22.80;;;;;;5020539;28;19968;-71
2022/03/11 09:27:11;;;;;;;;;;;18.90;22.90;;;;;;5027224;28;20020;-72
2022/03/11 09:29:38;;;;;;;;;;;19.30;22.90;;;;;;5024373;28;20352;-73
2022/03/11 09:32:05;;;;;;;;;;;19.20;23.00;;;;;;5024562;28;19925;-71
2022/03/11 09:34:33;;;;;;;;;;;19.20;23.00;;;;;;5029347;28;19932;-70
2022/03/11 09:37:00;;;;;;;;;;;18.60;23.80;;;;;;5018621;28;19929;-70
2022/03/11 09:39:27;;;;;;;;;;;19.10;23.10;;;;;;5019961;28;19988;-71
2022/03/11 09:41:54;;;;;;;;;;;18.70;23.50;;;;;;5025128;28;19929;-70
2022/03/11 09:44:21;;;;;;;;;;;18.50;23.70;;;;;;5022701;28;20501;-70
2022/03/11 09:46:48;;;;;;;;;;;18.20;24.40;;;;;;5020739;28;22155;-70
2022/03/11 09:49:15;;;;;;;;;;;18.30;24.90;;;;;;5020289;28;19939;-70
2022/03/11 09:51:45;;;;;;;;;;;17.10;26.00;;;;;;5021179;28;20021;-70
2022/03/11 09:54:12;;;;;;;;;;;15.20;28.90;;;;;;5018034;28;19929;-70
2022/03/11 09:56:40;;;;;;;;;;;14.30;30.60;;;;;;5022120;28;19926;-70
2022/03/11 09:59:07;;;;;;;;;;;13.80;32.50;;;;;;5019725;28;19929;-70
2022/03/11 10:01:33;;;;;;;;;;;13.60;33.50;;;;;;5011887;28;19932;-71
2022/03/11 10:04:00;;;;;;;;;;;13.80;34.00;;;;;;5020382;28;20020;-71
2022/03/11 10:06:37;;;;;;;;;;;14.10;33.60;;;;;;5023140;28;19931;-72
2022/03/11 10:09:05;;;;;;;;;;;14.30;33.30;;;;;;5023235;28;20450;-71
2022/03/11 10:11:33;;;;;;;;;;;14.70;32.70;;;;;;5025454;28;20458;-71
2022/03/11 10:14:05;;;;;;;;;;;14.50;33.40;;;;;;5023133;28;19959;-71
2022/03/11 10:16:32;;;;;;;;;;;14.30;34.00;;;;;;5018708;28;19956;-70
2022/03/11 10:18:59;;;;;;;;;;;14.00;35.10;;;;;;5030219;28;19931;-70
2022/03/11 10:21:31;;;;;;;;;;;13.90;35.70;;;;;;5029134;28;19931;-69
2022/03/11 10:23:57;;;;;;;;;;;13.80;36.00;;;;;;5028546;28;19935;-70
2022/03/11 10:26:36;;;;;;;;;;;13.80;36.50;;;;;;5020542;28;19925;-70
2022/03/11 10:29:04;;;;;;;;;;;13.70;36.50;;;;;;5015422;28;20408;-70
2022/03/11 10:31:31;;;;;;;;;;;13.70;36.90;;;;;;5019037;28;19926;-71
2022/03/11 10:34:14;;;;;;;;;;;13.80;37.10;;;;;;5019117;28;19939;-70
2022/03/11 10:36:46;;;;;;;;;;;13.80;36.80;;;;;;5027620;28;19932;-71
2022/03/11 10:39:14;;;;;;;;;;;13.90;36.70;;;;;;5032885;28;20228;-71
2022/03/11 10:41:42;;;;;;;;;;;13.70;37.30;;;;;;5022743;28;19983;-70
2022/03/11 10:44:09;;;;;;;;;;;13.70;37.30;;;;;;5025333;28;20015;-74
2022/03/11 10:46:36;;;;;;;;;;;13.70;37.90;;;;;;5016980;28;20408;-73
2022/03/11 10:49:03;;;;;;;;;;;13.80;37.70;;;;;;5025235;28;20258;-75
2022/03/11 10:51:30;;;;;;;;;;;13.80;37.50;;;;;;5019156;28;19925;-75
2022/03/11 10:53:58;;;;;;;;;;;13.90;38.30;;;;;;5015842;28;20351;-75
2022/03/11 10:56:26;;;;;;;;;;;14.00;37.40;;;;;;5022694;28;19929;-74
2022/03/11 10:58:54;;;;;;;;;;;14.20;37.50;;;;;;5015380;28;20035;-72
2022/03/11 11:01:33;;;;;;;;;;;14.10;37.70;;;;;;5016368;28;20359;-75
2022/03/11 11:04:01;;;;;;;;;;;14.10;37.70;;;;;;5033325;28;19925;-73
2022/03/11 11:06:28;;;;;;;;;;;14.00;37.90;;;;;;5020773;28;19933;-72
2022/03/11 11:08:55;;;;;;;;;;;14.00;37.60;;;;;;5017786;28;20019;-75
2022/03/11 11:11:22;;;;;;;;;;;14.10;38.10;;;;;;5018506;28;19996;-76
2022/03/11 11:13:49;;;;;;;;;;;14.10;38.20;;;;;;5032724;28;19925;-74
2022/03/11 11:16:17;;;;;;;;;;;14.30;38.50;;;;;;5023673;28;19935;-74
2022/03/11 11:18:46;;;;;;;;;;;14.50;38.30;;;;;;5029674;28;20320;-74
2022/03/11 11:21:13;;;;;;;;;;;14.60;37.60;;;;;;5024574;28;19925;-74
2022/03/11 11:23:40;;;;;;;;;;;14.50;37.90;;;;;;5025238;28;20012;-74
2022/03/11 11:26:10;;;;;;;;;;;14.50;37.90;;;;;;5027050;28;20020;-74
2022/03/11 11:28:38;;;;;;;;;;;14.50;37.90;;;;;;5020199;28;19976;-76
2022/03/11 11:31:05;;;;;;;;;;;14.60;38.30;;;;;;5030076;28;19936;-75
2022/03/11 11:33:33;;;;;;;;;;;14.80;38.30;;;;;;5027529;28;20392;-74
2022/03/11 11:36:02;;;;;;;;;;;14.90;38.40;;;;;;5020185;28;20281;-74
2022/03/11 11:38:29;;;;;;;;;;;14.90;38.10;;;;;;5018571;28;20361;-74
2022/03/11 11:40:56;;;;;;;;;;;15.00;37.90;;;;;;5013370;28;19940;-74
2022/03/11 11:43:27;;;;;;;;;;;15.10;38.30;;;;;;5017327;28;19926;-72
2022/03/11 11:45:55;;;;;;;;;;;15.30;38.40;;;;;;5026913;28;20340;-72
2022/03/11 11:48:46;;;;;;;;;;;15.40;37.90;;;;;;5014428;28;20016;-73
2022/03/11 11:51:14;;;;;;;;;;;15.50;37.60;;;;;;5014208;28;20016;-74
2022/03/11 11:53:42;;;;;;;;;;;15.50;37.70;;;;;;5019896;28;19925;-73
2022/03/11 11:56:28;;;;;;;;;;;15.50;37.60;;;;;;5019759;28;20376;-72
2022/03/11 11:58:56;;;;;;;;;;;15.60;38.00;;;;;;5020630;28;19926;-73
2022/03/11 12:01:41;;;;;;;;;;;15.70;37.30;;;;;;5015875;28;19961;-72
2022/03/11 12:04:23;;;;;;;;;;;15.60;37.30;;;;;;5019356;28;20055;-72
2022/03/11 12:06:55;;;;;;;;;;;15.60;37.10;;;;;;5021617;28;19925;-72
2022/03/11 12:09:40;;;;;;;;;;;15.70;37.00;;;;;;5015215;28;20300;-73
2022/03/11 12:12:07;;;;;;;;;;;15.90;37.20;;;;;;5018572;28;19925;-72
2022/03/11 12:14:54;;;;;;;;;;;16.00;36.50;;;;;;5016684;28;20312;-72
2022/03/11 12:17:35;;;;;;;;;;;15.80;36.50;;;;;;5014256;28;19983;-70
2022/03/11 12:20:17;;;;;;;;;;;15.90;36.70;;;;;;5026500;28;19929;-70
2022/03/11 12:22:53;;;;;;;;;;;16.00;36.30;;;;;;5024096;28;20004;-70
2022/03/11 12:25:21;;;;;;;;;;;16.20;36.00;;;;;;5023255;28;20084;-70
2022/03/11 12:28:12;;;;;;;;;;;16.30;35.60;;;;;;5020341;28;19929;-72
2022/03/11 12:30:40;;;;;;;;;;;16.20;35.70;;;;;;5002080;28;19979;-72
2022/03/11 12:33:07;;;;;;;;;;;16.30;35.00;;;;;;5027430;28;19925;-72
2022/03/11 12:35:34;;;;;;;;;;;16.20;35.40;;;;;;5030913;28;19956;-70
2022/03/11 12:38:03;;;;;;;;;;;16.30;35.90;;;;;;5026081;28;19951;-70
2022/03/11 12:40:30;;;;;;;;;;;16.60;35.00;;;;;;5021270;28;20008;-70
2022/03/11 12:42:58;;;;;;;;;;;16.60;34.90;;;;;;5025390;28;19935;-70
2022/03/11 12:45:32;;;;;;;;;;;16.50;34.80;;;;;;5026808;28;19925;-71
2022/03/11 12:47:59;;;;;;;;;;;16.50;35.00;;;;;;5021244;28;20029;-72
2022/03/11 12:50:26;;;;;;;;;;;16.60;34.20;;;;;;5028917;28;19973;-72
2022/03/11 12:52:55;;;;;;;;;;;16.60;34.30;;;;;;5024862;28;19929;-72
2022/03/11 12:55:25;;;;;;;;;;;16.60;33.80;;;;;;5017903;28;19925;-71
2022/03/11 12:57:52;;;;;;;;;;;16.70;34.00;;;;;;5022014;28;20003;-69
2022/03/11 13:00:19;;;;;;;;;;;16.90;34.10;;;;;;5012129;28;20009;-69
2022/03/11 13:02:47;;;;;;;;;;;16.90;33.00;;;;;;5023798;28;19944;-70
2022/03/11 13:05:24;;;;;;;;;;;16.90;33.50;;;;;;5023781;28;19925;-70
2022/03/11 13:07:51;;;;;;;;;;;17.00;33.60;;;;;;5021540;28;20027;-70
2022/03/11 13:10:21;;;;;;;;;;;17.20;33.70;;;;;;5021379;28;20475;-68
2022/03/11 13:12:51;;;;;;;;;;;17.10;32.50;;;;;;5018107;28;20491;-69
2022/03/11 13:15:21;;;;;;;;;;;17.00;32.70;;;;;;5026760;28;19925;-70
2022/03/11 13:17:50;;;;;;;;;;;17.10;33.00;;;;;;5024417;28;19979;-70
2022/03/11 13:20:27;;;;;;;;;;;17.30;32.40;;;;;;5029324;28;19935;-70
2022/03/11 13:22:54;;;;;;;;;;;17.30;32.10;;;;;;5020716;28;19931;-70
2022/03/11 13:25:24;;;;;;;;;;;17.30;31.60;;;;;;5018974;28;20281;-71
2022/03/11 13:27:53;;;;;;;;;;;17.30;32.00;;;;;;5017906;28;20468;-71
2022/03/11 13:30:29;;;;;;;;;;;17.30;31.60;;;;;;5022610;28;19925;-71
2022/03/11 13:32:56;;;;;;;;;;;17.30;31.80;;;;;;5022842;28;19934;-72
2022/03/11 13:35:29;;;;;;;;;;;17.30;31.40;;;;;;5026852;28;19944;-72
2022/03/11 13:37:57;;;;;;;;;;;17.30;31.00;;;;;;5021447;28;19945;-76
2022/03/11 13:40:24;;;;;;;;;;;17.20;31.30;;;;;;5023200;28;19932;-69
2022/03/11 13:42:55;;;;;;;;;;;17.10;31.60;;;;;;5013329;28;20357;-74
2022/03/11 13:45:27;;;;;;;;;;;17.10;31.60;;;;;;5013983;28;20452;-72
2022/03/11 13:48:06;;;;;;;;;;;17.10;31.40;;;;;;5017827;28;20392;-74
2022/03/11 13:50:33;;;;;;;;;;;17.00;31.60;;;;;;5014877;28;19925;-74
2022/03/11 13:53:00;;;;;;;;;;;17.00;31.90;;;;;;5009742;28;19943;-71
2022/03/11 13:55:36;;;;;;;;;;;17.00;32.70;;;;;;5024608;28;20318;-72
2022/03/11 13:58:14;;;;;;;;;;;17.10;31.60;;;;;;5017908;28;20385;-70
2022/03/11 14:00:41;;;;;;;;;;;17.10;31.20;;;;;;5010813;28;19925;-71
2022/03/11 14:03:18;;;;;;;;;;;17.10;31.60;;;;;;5005635;28;22745;-71
2022/03/11 14:05:45;;;;;;;;;;;17.10;31.40;;;;;;5007048;28;19932;-71
2022/03/11 14:08:14;;;;;;;;;;;17.20;31.60;;;;;;5011874;28;19925;-71
2022/03/11 14:10:42;;;;;;;;;;;17.20;31.20;;;;;;5017046;28;19933;-71
2022/03/11 14:13:09;;;;;;;;;;;17.20;30.90;;;;;;5022699;28;19932;-72
2022/03/11 14:15:38;;;;;;;;;;;17.10;30.60;;;;;;5015232;28;19926;-72
2022/03/11 14:18:05;;;;;;;;;;;17.20;31.10;;;;;;5014969;28;20296;-70
2022/03/11 14:20:32;;;;;;;;;;;17.20;31.60;;;;;;5007286;28;19926;-70
2022/03/11 14:22:59;;;;;;;;;;;17.20;31.20;;;;;;5014332;28;19928;-72
2022/03/11 14:25:27;;;;;;;;;;;17.10;31.40;;;;;;5018883;28;19972;-71
2022/03/11 14:27:53;;;;;;;;;;;17.10;31.50;;;;;;5017215;28;20456;-70